Slavutich-16 — ENYT — position and weather

sailwx.info

Track history (hours):
 
Tides and Currents Weather Stations Pressure Air Temp Water Temp Dewpoint Dewpoint Depression Visibility Wind Speed Wind Dir Waves Ship Positions

Slavutich-16

Last reported at 2017-Aug-03 23:40 UTC. Time now 2017-Sep-25 10:04 UTC.
Position N 45°29' E 036°43'.
Warning: this ship's position is 52 days out of date.

Length 108 m; draft 2.4 m.

Type: Cargo ship. MMSI: 272046000.

Date/timePositionNaut miles runAvg speedWind from/ knotsBaromVisibWave heightAir tempDewpointWater temp
2017-Aug-03 23:40N 45°29' E 036°43'3 6.1
2017-Aug-03 23:13N 45°26' E 036°42'1 6.1
2017-Aug-03 23:00N 45°25' E 036°41'3 6.2
2017-Aug-03 22:30N 45°22' E 036°40'3 5.8
2017-Aug-03 22:00N 45°20' E 036°37'3 5.8
2017-Aug-03 21:31N 45°19' E 036°33'4 5.5
2017-Aug-03 20:51N 45°17' E 036°29'3 5.9
2017-Aug-03 20:21N 45°14' E 036°28'1 3.3
2017-Aug-03 20:01N 45°13' E 036°28'3 3.2
2017-Aug-03 19:11N 45°10' E 036°29'1 3.3
2017-Aug-03 18:53N 45°09' E 036°29'2 3.4
2017-Aug-03 18:23N 45°08' E 036°30'2 3.8
2017-Aug-03 17:55N 45°06' E 036°30'3 6.5
2017-Aug-03 17:24N 45°03' E 036°31'13 0.7
2017-Aug-02 22:35N 45°15' E 036°28'1 6.6
2017-Aug-02 22:30N 45°16' E 036°28'3 5.8
2017-Aug-02 21:58N 45°19' E 036°31'3 7.1
2017-Aug-02 21:30N 45°20' E 036°35'3 6.7
2017-Aug-02 21:00N 45°21' E 036°39'3 5.5
2017-Aug-02 20:30N 45°24' E 036°41'3 5.7
2017-Aug-02 20:00N 45°27' E 036°40'3 1.7
2017-Aug-02 18:22N 45°29' E 036°38'1 2.8
2017-Aug-02 17:51N 45°30' E 036°39'  
2017-Jul-26 01:19N 45°15' E 036°28'5 5.4
2017-Jul-26 00:27N 45°19' E 036°32'3 5.8
2017-Jul-26 00:00N 45°20' E 036°36'3 5.4
2017-Jul-25 23:30N 45°21' E 036°39'3 6.2
2017-Jul-25 23:00N 45°24' E 036°41'3 6.6
2017-Jul-25 22:30N 45°28' E 036°40'  
Track history (hours):
 
Tides and Currents Weather Stations Pressure Air Temp Water Temp Dewpoint Dewpoint Depression Visibility Wind Speed Wind Dir Waves Ship Positions

Slavutich-16

Last reported at 2017-Aug-03 23:40 UTC. Time now 2017-Sep-25 10:04 UTC.
Position N 45°29' E 036°43'.
Warning: this ship's position is 52 days out of date.

Length 108 m; draft 2.4 m.

Type: Cargo ship. MMSI: 272046000.

Date/timePositionNaut miles runAvg speedWind from/ knotsBaromVisibWave heightAir tempDewpointWater temp
2017-Aug-03 23:40N 45°29' E 036°43'3 6.1
2017-Aug-03 23:13N 45°26' E 036°42'1 6.1
2017-Aug-03 23:00N 45°25' E 036°41'3 6.2
2017-Aug-03 22:30N 45°22' E 036°40'3 5.8
2017-Aug-03 22:00N 45°20' E 036°37'3 5.8
2017-Aug-03 21:31N 45°19' E 036°33'4 5.5
2017-Aug-03 20:51N 45°17' E 036°29'3 5.9
2017-Aug-03 20:21N 45°14' E 036°28'1 3.3
2017-Aug-03 20:01N 45°13' E 036°28'3 3.2
2017-Aug-03 19:11N 45°10' E 036°29'1 3.3
2017-Aug-03 18:53N 45°09' E 036°29'2 3.4
2017-Aug-03 18:23N 45°08' E 036°30'2 3.8
2017-Aug-03 17:55N 45°06' E 036°30'3 6.5
2017-Aug-03 17:24N 45°03' E 036°31'13 0.7
2017-Aug-02 22:35N 45°15' E 036°28'1 6.6
2017-Aug-02 22:30N 45°16' E 036°28'3 5.8
2017-Aug-02 21:58N 45°19' E 036°31'3 7.1
2017-Aug-02 21:30N 45°20' E 036°35'3 6.7
2017-Aug-02 21:00N 45°21' E 036°39'3 5.5
2017-Aug-02 20:30N 45°24' E 036°41'3 5.7
2017-Aug-02 20:00N 45°27' E 036°40'3 1.7
2017-Aug-02 18:22N 45°29' E 036°38'1 2.8
2017-Aug-02 17:51N 45°30' E 036°39'  
2017-Jul-26 01:19N 45°15' E 036°28'5 5.4
2017-Jul-26 00:27N 45°19' E 036°32'3 5.8
2017-Jul-26 00:00N 45°20' E 036°36'3 5.4
2017-Jul-25 23:30N 45°21' E 036°39'3 6.2
2017-Jul-25 23:00N 45°24' E 036°41'3 6.6
2017-Jul-25 22:30N 45°28' E 036°40'  

Dump ship's entire track history